Time;durP1;ratioP1;P1;durP2;ratioP2;P2;SDS_P1;SDS_P2;PMS_P1;PMS_P2;Temp;Humidity;BMP_temperature;BMP_pressure;BME280_temperature;BME280_humidity;BME280_pressure;Samples;Min_cycle;Max_cycle;Signal;HPM_P1;HPM_P2
2023/05/15 00:02:43;;;;;;;5.70;3.70;;;23.40;57.50;;;;;;221885;1256;22565;-46
2023/05/15 00:07:47;;;;;;;3.60;3.30;;;23.30;57.70;;;;;;221779;1261;23882;-41
2023/05/15 00:12:52;;;;;;;4.80;3.70;;;23.30;57.60;;;;;;222264;1257;25279;-41
2023/05/15 00:17:56;;;;;;;5.30;3.60;;;23.30;57.60;;;;;;221933;1256;22771;-45
2023/05/15 00:23:00;;;;;;;4.20;3.30;;;23.40;57.60;;;;;;221758;1256;22642;-41
2023/05/15 00:28:04;;;;;;;5.10;3.10;;;23.30;57.50;;;;;;221563;1263;22524;-40
2023/05/15 00:33:08;;;;;;;4.10;3.70;;;23.30;57.60;;;;;;222862;1263;22521;-41
2023/05/15 00:38:12;;;;;;;3.60;3.30;;;23.40;58.10;;;;;;221704;1265;22647;-41
2023/05/15 00:43:17;;;;;;;3.40;3.00;;;23.40;57.40;;;;;;226595;1265;22528;-40
2023/05/15 00:48:24;;;;;;;5.80;3.40;;;23.50;57.50;;;;;;222099;1266;22781;-42
2023/05/15 00:53:28;;;;;;;4.80;3.20;;;23.40;57.30;;;;;;222141;1263;24231;-42
2023/05/15 00:58:33;;;;;;;3.80;3.50;;;23.30;57.60;;;;;;221698;1263;22592;-41
2023/05/15 01:03:37;;;;;;;3.40;3.10;;;23.30;57.70;;;;;;221977;1257;22525;-41
2023/05/15 01:08:45;;;;;;;4.00;3.20;;;23.20;58.30;;;;;;221659;1267;25331;-42
2023/05/15 01:13:49;;;;;;;3.70;3.20;;;23.20;58.00;;;;;;221767;1269;24228;-41
2023/05/15 01:18:53;;;;;;;3.60;3.30;;;23.20;58.00;;;;;;221703;1264;25462;-44
2023/05/15 01:24:39;;;;;;;5.40;3.10;;;23.20;58.00;;;;;;221890;1266;24176;-42
2023/05/15 01:30:00;;;;;;;3.30;2.80;;;23.20;58.00;;;;;;221986;1259;22622;-45
2023/05/15 01:35:16;;;;;;;3.70;3.20;;;23.20;57.90;;;;;;221820;1256;22817;-43
2023/05/15 01:40:23;;;;;;;3.50;3.20;;;23.10;58.50;;;;;;221876;1257;23880;-40
2023/05/15 01:45:28;;;;;;;3.60;3.30;;;23.10;58.20;;;;;;221755;1259;24168;-43
2023/05/15 01:50:34;;;;;;;3.40;3.20;;;23.10;57.90;;;;;;221904;1257;25214;-42
2023/05/15 01:55:40;;;;;;;3.40;3.10;;;23.10;58.20;;;;;;221778;1265;22724;-42
2023/05/15 02:00:46;;;;;;;3.40;3.10;;;23.10;58.50;;;;;;221693;1264;26619;-41
2023/05/15 02:05:52;;;;;;;3.00;2.80;;;23.10;58.00;;;;;;221870;1266;22515;-40
2023/05/15 02:10:58;;;;;;;3.40;3.00;;;23.10;58.40;;;;;;221508;1266;263955;-44
2023/05/15 02:16:02;;;;;;;3.10;2.80;;;23.10;57.70;;;;;;221819;1255;22509;-41
2023/05/15 02:21:07;;;;;;;3.10;2.50;;;23.10;58.10;;;;;;221897;1259;26618;-40
2023/05/15 02:26:17;;;;;;;3.70;2.90;;;23.10;57.90;;;;;;221797;1266;22658;-40
2023/05/15 02:31:39;;;;;;;3.40;3.10;;;23.10;58.00;;;;;;221835;1259;22554;-40
2023/05/15 02:36:45;;;;;;;;;;;23.10;58.00;;;;;;221754;1260;22496;-39
2023/05/15 02:41:54;;;;;;;3.00;2.80;;;23.10;58.20;;;;;;221498;1263;22514;-39
2023/05/15 02:46:59;;;;;;;3.20;2.90;;;23.10;58.30;;;;;;221826;1256;23929;-40
2023/05/15 02:52:04;;;;;;;3.00;2.70;;;23.10;57.90;;;;;;221814;1264;22512;-42
2023/05/15 02:57:08;;;;;;;3.40;2.80;;;23.10;57.80;;;;;;221885;1266;23136;-40
2023/05/15 03:02:12;;;;;;;3.40;3.10;;;23.00;57.90;;;;;;221655;1257;22520;-43
2023/05/15 03:07:16;;;;;;;3.30;3.00;;;23.10;58.40;;;;;;221640;1270;25527;-41
2023/05/15 03:12:21;;;;;;;2.90;2.70;;;23.00;58.10;;;;;;221796;1268;22751;-41
2023/05/15 03:17:25;;;;;;;3.40;3.10;;;23.00;58.20;;;;;;221743;1266;22511;-43
2023/05/15 03:22:29;;;;;;;3.40;3.00;;;23.00;58.10;;;;;;222059;1269;25599;-41
2023/05/15 03:27:34;;;;;;;3.10;2.80;;;23.00;58.10;;;;;;221647;1271;22514;-43
2023/05/15 03:32:38;;;;;;;3.10;2.70;;;23.00;58.40;;;;;;221778;1267;22784;-41
2023/05/15 03:37:42;;;;;;;3.60;3.30;;;23.00;58.50;;;;;;222065;1263;24869;-40
2023/05/15 03:42:46;;;;;;;2.80;2.60;;;22.90;58.20;;;;;;221686;1266;22511;-40
2023/05/15 03:47:51;;;;;;;2.90;2.60;;;23.00;58.40;;;;;;221670;1268;24167;-40
2023/05/15 03:52:55;;;;;;;3.10;2.90;;;23.00;58.10;;;;;;221723;1265;22511;-42
2023/05/15 03:57:59;;;;;;;3.00;2.80;;;22.90;58.20;;;;;;221797;1258;22545;-44
2023/05/15 04:03:04;;;;;;;4.00;2.70;;;23.00;58.20;;;;;;221763;1266;24263;-42
2023/05/15 04:08:09;;;;;;;2.80;2.60;;;22.90;58.10;;;;;;221762;1266;24238;-43
2023/05/15 04:13:13;;;;;;;4.10;3.00;;;22.90;58.30;;;;;;221925;1266;23892;-42
2023/05/15 04:18:17;;;;;;;2.70;2.50;;;22.90;58.70;;;;;;221768;1262;25306;-41
2023/05/15 04:23:22;;;;;;;3.10;2.70;;;22.90;58.20;;;;;;221867;1264;24411;-41
2023/05/15 04:28:26;;;;;;;2.30;2.20;;;22.90;58.10;;;;;;221730;1268;22543;-46
2023/05/15 04:33:32;;;;;;;2.50;2.30;;;22.90;58.20;;;;;;221915;1264;22532;-42
2023/05/15 04:38:37;;;;;;;3.20;2.50;;;22.90;58.50;;;;;;221661;1269;22988;-45
2023/05/15 04:43:41;;;;;;;2.50;2.40;;;22.90;58.20;;;;;;221698;1266;23002;-42
2023/05/15 04:48:45;;;;;;;2.90;2.70;;;22.80;58.50;;;;;;221895;1259;22554;-43
2023/05/15 04:53:49;;;;;;;2.20;2.10;;;22.80;58.20;;;;;;221654;1256;23912;-40
2023/05/15 04:58:53;;;;;;;2.20;2.10;;;22.80;58.20;;;;;;221735;1260;22756;-38
2023/05/15 05:03:57;;;;;;;2.40;2.30;;;22.90;58.20;;;;;;221883;1265;24337;-44
2023/05/15 05:09:02;;;;;;;2.80;2.60;;;22.80;58.20;;;;;;221736;1266;22512;-39
2023/05/15 05:14:07;;;;;;;2.20;2.10;;;22.80;58.10;;;;;;221792;1268;22772;-45
2023/05/15 05:19:11;;;;;;;2.50;2.40;;;22.90;58.20;;;;;;221612;1260;22514;-39
2023/05/15 05:24:15;;;;;;;2.50;2.30;;;22.80;57.60;;;;;;222182;1265;22623;-43
2023/05/15 05:29:19;;;;;;;2.40;2.30;;;22.90;58.10;;;;;;221873;1263;22531;-43
2023/05/15 05:34:23;;;;;;;2.40;2.20;;;22.80;58.10;;;;;;221705;1258;22530;-39
2023/05/15 05:39:27;;;;;;;2.90;1.70;;;22.80;58.80;;;;;;221792;1264;22600;-40
2023/05/15 05:44:33;;;;;;;2.20;2.10;;;22.80;58.60;;;;;;221871;1266;24452;-39
2023/05/15 05:49:38;;;;;;;4.90;2.20;;;22.70;58.40;;;;;;221697;1268;22573;-46
2023/05/15 05:54:45;;;;;;;2.30;2.20;;;22.70;58.40;;;;;;221525;1269;24234;-47
2023/05/15 05:59:49;;;;;;;2.50;2.30;;;22.70;58.30;;;;;;221711;1260;25323;-50
2023/05/15 06:04:53;;;;;;;4.20;3.00;;;22.80;59.20;;;;;;221434;1266;23950;-53
2023/05/15 06:09:57;;;;;;;4.10;2.60;;;22.80;59.10;;;;;;221792;1264;22507;-50
2023/05/15 06:15:01;;;;;;;2.90;2.50;;;22.80;58.90;;;;;;221582;1269;22667;-47
2023/05/15 06:20:07;;;;;;;2.50;2.30;;;22.80;58.60;;;;;;221562;1259;22512;-46
2023/05/15 06:25:13;;;;;;;5.20;2.90;;;22.70;58.90;;;;;;221625;1266;25337;-47
2023/05/15 06:30:17;;;;;;;6.20;2.40;;;22.80;59.30;;;;;;221408;1260;22801;-47
2023/05/15 06:35:23;;;;;;;7.10;2.90;;;22.90;59.30;;;;;;221463;1259;23892;-50
2023/05/15 06:40:27;;;;;;;10.50;3.00;;;22.90;59.50;;;;;;221558;1269;22597;-51
2023/05/15 06:45:31;;;;;;;6.50;2.50;;;23.00;59.30;;;;;;221416;1265;22593;-47
2023/05/15 06:50:35;;;;;;;6.00;2.20;;;23.00;59.10;;;;;;221414;1259;22522;-50
2023/05/15 06:55:39;;;;;;;16.50;3.00;;;23.10;59.20;;;;;;221456;1265;22623;-47
2023/05/15 07:00:43;;;;;;;8.20;2.70;;;23.10;59.60;;;;;;221487;1267;24187;-49
2023/05/15 07:05:47;;;;;;;14.40;3.20;;;23.00;59.70;;;;;;221240;1270;22514;-47
2023/05/15 07:10:52;;;;;;;9.90;3.00;;;23.00;59.80;;;;;;221511;1262;22623;-49
2023/05/15 07:15:56;;;;;;;12.70;3.30;;;23.20;59.50;;;;;;221570;1269;26581;-48
2023/05/15 07:21:00;;;;;;;8.30;2.80;;;23.20;59.80;;;;;;221487;1267;22526;-47
2023/05/15 07:26:04;;;;;;;9.00;2.90;;;23.10;59.70;;;;;;221102;1269;25429;-48
2023/05/15 07:31:11;;;;;;;8.00;2.80;;;22.90;59.80;;;;;;221795;1267;22611;-47
2023/05/15 07:36:15;;;;;;;11.40;3.00;;;22.90;59.70;;;;;;221501;1269;24317;-47
2023/05/15 07:41:19;;;;;;;8.50;4.10;;;22.90;59.70;;;;;;221215;1270;22518;-46
2023/05/15 07:46:24;;;;;;;7.50;2.80;;;22.90;59.80;;;;;;221581;1264;22521;-45
2023/05/15 07:51:29;;;;;;;4.80;2.70;;;22.90;60.00;;;;;;221572;1267;22530;-49
2023/05/15 07:56:33;;;;;;;6.50;2.80;;;22.80;59.80;;;;;;221893;1259;22610;-48
2023/05/15 08:01:37;;;;;;;5.60;3.10;;;23.00;59.50;;;;;;221689;1266;24187;-49
2023/05/15 08:06:41;;;;;;;4.50;2.80;;;23.00;59.20;;;;;;221486;1264;22523;-45
2023/05/15 08:11:46;;;;;;;4.80;2.80;;;23.10;59.50;;;;;;221491;1264;22713;-50
2023/05/15 08:16:50;;;;;;;4.90;2.50;;;23.10;59.00;;;;;;221477;1256;22515;-48
2023/05/15 08:21:55;;;;;;;3.90;2.90;;;23.20;58.80;;;;;;221684;1265;22651;-45
2023/05/15 08:26:59;;;;;;;5.20;2.40;;;23.00;59.00;;;;;;221470;1266;22515;-50
2023/05/15 08:32:05;;;;;;;3.60;2.90;;;23.00;59.10;;;;;;221496;1264;22713;-46
2023/05/15 08:37:09;;;;;;;3.60;2.70;;;23.00;58.90;;;;;;221767;1258;22517;-46
2023/05/15 08:42:20;;;;;;;4.00;2.80;;;23.00;58.80;;;;;;221500;1271;22722;-53
2023/05/15 08:47:28;;;;;;;2.80;2.60;;;23.00;59.00;;;;;;221897;1271;25092;-48
2023/05/15 08:52:33;;;;;;;2.90;2.60;;;23.00;59.00;;;;;;221576;1251;22521;-50
2023/05/15 08:57:38;;;;;;;4.80;2.90;;;22.90;59.00;;;;;;221711;1249;24187;-46
2023/05/15 09:02:42;;;;;;;3.30;2.70;;;23.10;58.90;;;;;;221283;1265;25227;-47
2023/05/15 09:07:48;;;;;;;4.20;2.90;;;23.00;59.00;;;;;;221555;1267;22531;-47
2023/05/15 09:12:53;;;;;;;3.50;2.70;;;23.00;58.90;;;;;;221482;1256;22790;-47
2023/05/15 09:17:58;;;;;;;2.50;2.30;;;22.90;58.60;;;;;;222061;1264;25367;-46
2023/05/15 09:23:04;;;;;;;3.10;2.80;;;22.90;58.60;;;;;;221520;1257;22517;-48
2023/05/15 09:28:30;;;;;;;3.30;3.00;;;22.90;58.60;;;;;;221536;1258;23082;-48
2023/05/15 09:33:36;;;;;;;3.10;2.80;;;22.90;58.60;;;;;;221744;1259;22518;-46
2023/05/15 09:38:42;;;;;;;3.30;2.50;;;22.90;58.90;;;;;;221763;1257;22627;-49
2023/05/15 09:43:46;;;;;;;2.40;2.20;;;22.90;58.40;;;;;;221573;1258;25378;-49
2023/05/15 09:48:54;;;;;;;3.50;2.70;;;22.90;58.30;;;;;;221648;1267;23217;-46
2023/05/15 09:53:58;;;;;;;3.70;2.50;;;22.90;58.70;;;;;;221566;1260;22639;-48
2023/05/15 09:59:02;;;;;;;3.60;2.80;;;22.90;58.40;;;;;;221686;1262;22520;-45
2023/05/15 10:04:06;;;;;;;3.50;2.30;;;23.00;58.50;;;;;;221468;1263;24352;-50
2023/05/15 10:09:13;;;;;;;2.10;2.00;;;22.90;58.50;;;;;;221757;1261;22656;-52
2023/05/15 10:14:18;;;;;;;3.10;2.90;;;22.90;58.30;;;;;;221957;1267;22496;-53
2023/05/15 10:19:25;;;;;;;2.60;2.40;;;23.00;58.30;;;;;;221785;1264;25469;-47
2023/05/15 10:24:31;;;;;;;3.50;2.60;;;22.90;58.30;;;;;;222095;1264;22640;-53
2023/05/15 10:29:36;;;;;;;2.70;2.50;;;22.90;58.40;;;;;;222031;1261;22521;-48
2023/05/15 10:34:42;;;;;;;2.50;2.30;;;22.90;58.60;;;;;;221900;1248;22681;-47
2023/05/15 10:39:46;;;;;;;2.30;2.10;;;22.90;58.20;;;;;;221994;1257;24379;-48
2023/05/15 10:44:53;;;;;;;2.70;2.50;;;22.90;58.00;;;;;;221846;1267;24236;-47
2023/05/15 10:49:58;;;;;;;3.20;2.80;;;22.90;58.20;;;;;;221907;1263;22538;-47
2023/05/15 10:55:05;;;;;;;3.10;2.60;;;22.90;58.10;;;;;;221771;1258;22576;-50
2023/05/15 11:00:22;;;;;;;3.60;2.20;;;23.00;58.00;;;;;;221708;1267;25327;-47
2023/05/15 11:05:26;;;;;;;2.70;2.50;;;22.90;58.00;;;;;;221925;1267;22561;-46
2023/05/15 11:10:31;;;;;;;2.70;2.60;;;22.90;57.80;;;;;;221872;1264;22510;-50
2023/05/15 11:15:46;;;;;;;2.60;2.40;;;23.00;58.20;;;;;;221766;1264;23891;-45
2023/05/15 11:20:52;;;;;;;2.60;2.40;;;23.00;57.80;;;;;;221714;1257;25320;-48
2023/05/15 11:25:57;;;;;;;2.60;2.30;;;23.00;57.60;;;;;;221685;1264;24187;-47
2023/05/15 11:31:05;;;;;;;2.30;2.20;;;23.00;57.60;;;;;;221846;1264;26581;-50
2023/05/15 11:36:10;;;;;;;2.70;2.20;;;23.00;57.50;;;;;;221791;1266;23141;-47
2023/05/15 11:41:20;;;;;;;2.70;2.50;;;23.10;57.40;;;;;;221778;1257;25491;-48
2023/05/15 11:46:24;;;;;;;2.30;2.20;;;23.10;57.20;;;;;;221838;1267;22523;-48
2023/05/15 11:51:29;;;;;;;2.40;2.20;;;23.10;57.50;;;;;;221776;1260;22798;-46
2023/05/15 11:56:32;;;;;;;2.20;2.00;;;23.20;57.00;;;;;;221886;1264;24361;-50
2023/05/15 12:01:46;;;;;;;2.30;2.10;;;23.20;57.00;;;;;;221718;1257;22744;-49
2023/05/15 12:06:50;;;;;;;2.00;1.90;;;23.20;56.90;;;;;;221778;1264;24355;-50
2023/05/15 12:11:55;;;;;;;2.40;2.20;;;23.10;57.00;;;;;;221815;1266;22530;-47
2023/05/15 12:17:03;;;;;;;2.10;2.00;;;23.10;56.80;;;;;;221739;1268;23463;-50
2023/05/15 12:22:08;;;;;;;2.10;2.00;;;23.10;56.90;;;;;;221848;1256;22532;-55
2023/05/15 12:27:13;;;;;;;2.40;2.20;;;23.10;57.20;;;;;;221801;1263;22527;-47
2023/05/15 12:32:17;;;;;;;2.60;2.40;;;23.20;56.90;;;;;;221844;1267;22524;-55
2023/05/15 12:37:21;;;;;;;2.30;2.20;;;23.20;57.10;;;;;;221732;1259;24247;-48
2023/05/15 12:42:25;;;;;;;2.30;2.20;;;23.20;56.60;;;;;;221717;1266;22643;-49
2023/05/15 12:47:29;;;;;;;2.50;2.30;;;23.20;56.50;;;;;;221766;1267;24379;-50
2023/05/15 12:52:33;;;;;;;1.90;1.80;;;23.30;56.50;;;;;;221808;1264;22658;-47
2023/05/15 12:57:41;;;;;;;2.10;2.00;;;23.30;56.60;;;;;;221863;1266;22640;-50
2023/05/15 13:02:49;;;;;;;2.10;2.00;;;23.30;56.50;;;;;;221868;1257;25279;-51
2023/05/15 13:07:53;;;;;;;3.80;3.30;;;23.40;56.30;;;;;;221760;1256;24225;-51
2023/05/15 13:12:58;;;;;;;3.00;2.80;;;23.30;56.50;;;;;;221765;1256;24187;-52
2023/05/15 13:18:06;;;;;;;2.80;2.60;;;23.30;56.30;;;;;;221842;1259;24249;-51
2023/05/15 13:23:13;;;;;;;2.50;2.30;;;23.20;56.30;;;;;;221843;1270;22640;-50
2023/05/15 13:28:17;;;;;;;3.10;2.10;;;23.20;56.30;;;;;;221854;1264;25228;-54
2023/05/15 13:33:21;;;;;;;2.10;2.00;;;23.30;56.30;;;;;;221787;1265;22663;-51
2023/05/15 13:38:25;;;;;;;2.20;2.00;;;23.20;56.60;;;;;;221969;1260;23916;-52
2023/05/15 13:43:29;;;;;;;2.10;2.00;;;23.30;56.60;;;;;;221748;1266;23300;-53
2023/05/15 13:48:33;;;;;;;2.90;2.50;;;23.30;56.50;;;;;;221941;1257;22517;-48
2023/05/15 13:53:38;;;;;;;2.50;2.30;;;23.20;56.70;;;;;;221737;1263;22762;-50
2023/05/15 13:58:42;;;;;;;2.20;2.10;;;23.20;56.30;;;;;;222058;1252;24229;-48
2023/05/15 14:03:46;;;;;;;3.10;2.30;;;23.20;56.40;;;;;;221794;1257;22605;-53
2023/05/15 14:08:50;;;;;;;2.20;2.10;;;23.20;56.40;;;;;;221799;1256;22755;-50
2023/05/15 14:13:54;;;;;;;2.40;2.20;;;23.20;56.60;;;;;;221671;1257;210296;-47
2023/05/15 14:18:58;;;;;;;2.70;2.50;;;23.20;56.70;;;;;;221813;1266;22536;-48
2023/05/15 14:24:03;;;;;;;2.20;2.10;;;23.10;56.90;;;;;;221953;1256;22510;-50
2023/05/15 14:29:08;;;;;;;2.90;2.30;;;23.20;56.60;;;;;;221886;1267;24267;-50
2023/05/15 14:34:12;;;;;;;2.40;2.20;;;23.20;56.50;;;;;;221939;1253;22608;-50
2023/05/15 14:39:17;;;;;;;2.20;2.00;;;23.20;56.90;;;;;;221814;1256;24262;-51
2023/05/15 14:44:21;;;;;;;17.60;2.70;;;23.20;56.60;;;;;;221803;1266;22760;-49
2023/05/15 14:49:25;;;;;;;6.90;2.50;;;23.10;57.30;;;;;;221722;1256;22515;-53
2023/05/15 14:54:29;;;;;;;13.90;2.60;;;23.20;57.60;;;;;;221890;1263;25347;-51
2023/05/15 14:59:33;;;;;;;6.90;2.30;;;23.30;57.60;;;;;;221947;1265;22870;-47
2023/05/15 15:04:37;;;;;;;21.50;5.50;;;23.50;58.00;;;;;;221776;1264;24180;-50
2023/05/15 15:09:43;;;;;;;15.70;13.70;;;23.40;59.50;;;;;;221798;1256;22788;-51
2023/05/15 15:14:47;;;;;;;15.60;11.20;;;23.50;62.90;;;;;;221998;1270;22645;-51
2023/05/15 15:19:51;;;;;;;13.80;10.70;;;23.40;64.80;;;;;;221505;1267;22524;-54
2023/05/15 15:24:55;;;;;;;13.20;8.60;;;23.50;65.00;;;;;;221399;1261;24274;-51
2023/05/15 15:30:04;;;;;;;13.70;8.50;;;23.50;62.90;;;;;;221413;1259;25181;-50
2023/05/15 15:35:08;;;;;;;12.40;7.20;;;23.60;62.30;;;;;;221300;1259;24210;-53
2023/05/15 15:40:12;;;;;;;11.80;5.20;;;23.50;62.70;;;;;;221526;1260;25223;-56
2023/05/15 15:45:17;;;;;;;9.10;4.70;;;23.40;61.70;;;;;;221515;1266;26503;-54
2023/05/15 15:50:21;;;;;;;16.50;10.80;;;23.40;61.50;;;;;;221615;1272;22536;-55
2023/05/15 15:55:25;;;;;;;12.50;6.00;;;23.50;61.20;;;;;;221500;1259;22519;-45
2023/05/15 16:00:29;;;;;;;8.10;4.90;;;23.60;62.20;;;;;;221704;1249;22602;-49
2023/05/15 16:05:35;;;;;;;6.70;4.70;;;23.50;62.10;;;;;;221750;1259;24199;-43
2023/05/15 16:10:46;;;;;;;8.10;4.20;;;23.60;61.30;;;;;;221689;1266;25359;-50
2023/05/15 16:15:52;;;;;;;7.20;3.70;;;23.50;61.50;;;;;;221817;1259;22529;-45
2023/05/15 16:20:56;;;;;;;7.60;3.50;;;23.30;60.90;;;;;;222018;1250;24179;-43
2023/05/15 16:26:01;;;;;;;8.60;3.60;;;23.20;60.30;;;;;;221598;1272;22599;-43
2023/05/15 16:31:05;;;;;;;6.10;3.20;;;23.20;59.50;;;;;;222027;1266;22516;-50
2023/05/15 16:36:09;;;;;;;7.30;2.70;;;23.20;59.50;;;;;;221873;1265;24089;-44
2023/05/15 16:41:13;;;;;;;5.30;3.30;;;23.10;59.80;;;;;;221696;1257;22543;-46
2023/05/15 16:46:17;;;;;;;3.60;3.00;;;23.10;59.50;;;;;;221619;1269;22794;-53
2023/05/15 16:51:22;;;;;;;6.40;3.10;;;23.20;59.20;;;;;;221683;1259;22525;-51
2023/05/15 16:56:26;;;;;;;7.00;3.70;;;23.30;59.60;;;;;;221789;1270;25435;-44
2023/05/15 17:01:30;;;;;;;7.80;3.30;;;23.30;59.20;;;;;;221522;1256;22631;-43
2023/05/15 17:06:34;;;;;;;6.90;4.10;;;23.20;59.70;;;;;;221937;1266;22683;-44
2023/05/15 17:11:38;;;;;;;6.90;3.50;;;23.40;60.50;;;;;;222117;1265;25417;-43
2023/05/15 17:16:44;;;;;;;39.70;3.90;;;23.70;59.70;;;;;;221909;1264;22655;-43
2023/05/15 17:21:48;;;;;;;7.70;3.40;;;23.60;60.00;;;;;;221757;1256;23667;-45
2023/05/15 17:26:52;;;;;;;19.40;4.10;;;23.50;60.00;;;;;;221747;1257;22517;-45
2023/05/15 17:31:56;;;;;;;7.00;3.20;;;23.50;61.30;;;;;;221769;1263;22568;-45
2023/05/15 17:37:00;;;;;;;9.40;3.20;;;23.50;60.80;;;;;;222363;1250;24256;-47
2023/05/15 17:42:05;;;;;;;11.20;3.70;;;23.40;60.90;;;;;;221881;1263;24283;-47
2023/05/15 17:47:09;;;;;;;8.80;3.20;;;23.50;60.90;;;;;;221896;1259;24188;-46
2023/05/15 17:52:13;;;;;;;8.60;3.20;;;23.50;61.50;;;;;;221881;1256;22649;-47
2023/05/15 17:57:17;;;;;;;9.20;3.70;;;23.50;61.30;;;;;;221688;1260;22621;-53
2023/05/15 18:02:21;;;;;;;4.20;2.70;;;23.40;61.90;;;;;;221505;1266;22517;-49
2023/05/15 18:07:25;;;;;;;6.90;3.10;;;23.30;61.20;;;;;;221903;1259;22568;-50
2023/05/15 18:12:29;;;;;;;7.50;3.40;;;23.40;62.00;;;;;;221666;1263;22507;-49
2023/05/15 18:17:34;;;;;;;7.60;3.40;;;23.40;61.30;;;;;;221817;1249;22553;-51
2023/05/15 18:22:38;;;;;;;9.00;3.60;;;23.50;61.10;;;;;;221758;1262;22613;-49
2023/05/15 18:27:42;;;;;;;11.50;3.40;;;23.40;60.90;;;;;;221868;1265;22524;-46
2023/05/15 18:32:47;;;;;;;6.70;3.70;;;23.50;61.20;;;;;;221717;1259;23805;-48
2023/05/15 18:37:51;;;;;;;10.20;3.40;;;23.50;60.70;;;;;;221651;1257;22578;-46
2023/05/15 18:42:55;;;;;;;8.40;3.70;;;23.50;60.50;;;;;;221848;1259;23884;-45
2023/05/15 18:48:00;;;;;;;5.00;3.60;;;23.50;60.90;;;;;;221919;1264;22654;-48
2023/05/15 18:53:04;;;;;;;6.90;3.20;;;23.40;60.80;;;;;;221739;1256;23882;-53
2023/05/15 18:58:09;;;;;;;8.60;3.20;;;23.40;60.20;;;;;;221927;1266;25227;-46
2023/05/15 19:03:14;;;;;;;7.90;3.10;;;23.40;60.80;;;;;;223847;1266;22508;-45
2023/05/15 19:08:18;;;;;;;10.90;3.30;;;23.50;60.50;;;;;;221888;1267;23748;-44
2023/05/15 19:13:22;;;;;;;11.60;4.00;;;23.40;60.40;;;;;;222807;1247;22692;-47
2023/05/15 19:18:26;;;;;;;6.30;3.50;;;23.50;60.00;;;;;;224484;1268;23481;-45
2023/05/15 19:23:31;;;;;;;8.00;3.00;;;23.60;59.80;;;;;;223986;1263;22528;-44
2023/05/15 19:28:35;;;;;;;5.80;3.10;;;23.70;59.40;;;;;;221763;1260;23929;-47
2023/05/15 19:33:39;;;;;;;24.70;10.90;;;23.60;59.60;;;;;;221757;1256;24312;-48
2023/05/15 19:38:43;;;;;;;60.50;28.80;;;23.50;60.00;;;;;;221818;1257;22589;-46
2023/05/15 19:43:49;;;;;;;79.20;35.80;;;23.50;60.30;;;;;;221845;1256;22511;-51
2023/05/15 19:48:53;;;;;;;69.60;33.00;;;23.50;60.60;;;;;;221745;1247;24166;-48
2023/05/15 19:54:00;;;;;;;97.60;39.20;;;23.50;60.10;;;;;;221732;1271;22521;-44
2023/05/15 19:59:05;;;;;;;80.80;35.60;;;23.60;60.50;;;;;;221913;1256;24353;-47
2023/05/15 20:04:12;;;;;;;83.90;33.90;;;23.40;60.30;;;;;;221877;1259;22653;-53
2023/05/15 20:09:16;;;;;;;92.60;34.70;;;23.40;60.60;;;;;;222012;1258;22825;-46
2023/05/15 20:14:21;;;;;;;71.10;31.00;;;23.40;60.80;;;;;;221846;1267;22507;-52
2023/05/15 20:19:26;;;;;;;69.50;30.80;;;23.40;61.20;;;;;;221892;1269;22538;-52
2023/05/15 20:24:31;;;;;;;68.40;29.50;;;23.40;61.60;;;;;;221936;1258;22670;-52
2023/05/15 20:29:35;;;;;;;68.90;29.50;;;23.40;61.10;;;;;;221949;1263;22779;-51
2023/05/15 20:34:40;;;;;;;72.90;30.10;;;23.40;61.00;;;;;;222150;1266;22514;-52
2023/05/15 20:39:45;;;;;;;53.10;25.50;;;23.40;60.90;;;;;;221971;1266;22521;-52
2023/05/15 20:44:50;;;;;;;54.20;26.10;;;23.50;61.50;;;;;;221926;1260;23880;-56
2023/05/15 20:49:54;;;;;;;61.50;24.90;;;23.50;60.40;;;;;;222060;1256;25272;-48
2023/05/15 20:54:58;;;;;;;50.20;23.00;;;23.40;60.70;;;;;;221457;1267;22515;-46
2023/05/15 21:00:04;;;;;;;50.90;22.20;;;23.30;60.70;;;;;;229575;1267;22177;-49
2023/05/15 21:05:08;;;;;;;62.70;23.50;;;23.40;60.00;;;;;;226680;1271;25605;-49
2023/05/15 21:10:12;;;;;;;55.20;23.00;;;23.70;60.70;;;;;;222032;1266;22514;-53
2023/05/15 21:15:16;;;;;;;47.50;21.80;;;23.60;62.50;;;;;;221869;1264;22642;-58
2023/05/15 21:20:21;;;;;;;46.60;22.30;;;23.60;62.40;;;;;;221975;1263;22527;-53
2023/05/15 21:25:25;;;;;;;47.90;22.30;;;23.30;62.20;;;;;;222126;1256;22716;-56
2023/05/15 21:30:30;;;;;;;42.50;21.80;;;23.30;62.20;;;;;;221863;1266;22511;-51
2023/05/15 21:35:34;;;;;;;39.10;20.20;;;23.30;62.00;;;;;;221682;1259;22727;-48
2023/05/15 21:40:39;;;;;;;37.90;20.30;;;23.20;61.60;;;;;;221821;1264;22603;-51
2023/05/15 21:45:44;;;;;;;38.50;18.70;;;23.20;62.30;;;;;;222056;1263;25281;-51
2023/05/15 21:50:48;;;;;;;38.80;18.40;;;23.20;62.60;;;;;;221807;1266;22622;-56
2023/05/15 21:56:10;;;;;;;34.90;18.40;;;23.30;62.00;;;;;;221849;1257;24359;-51
2023/05/15 22:01:16;;;;;;;31.90;16.70;;;23.20;61.90;;;;;;221785;1257;22522;-54
2023/05/15 22:06:20;;;;;;;29.00;17.40;;;23.20;61.40;;;;;;221910;1265;24209;-57
2023/05/15 22:11:25;;;;;;;29.30;15.20;;;23.20;60.90;;;;;;221751;1266;22512;-57
2023/05/15 22:16:29;;;;;;;25.70;15.40;;;23.20;61.30;;;;;;222057;1269;26569;-52
2023/05/15 22:21:33;;;;;;;30.70;16.80;;;23.10;60.80;;;;;;221760;1257;23280;-45
2023/05/15 22:26:37;;;;;;;25.30;15.70;;;23.10;60.90;;;;;;222040;1262;22581;-51
2023/05/15 22:31:41;;;;;;;25.50;15.50;;;23.10;61.70;;;;;;221756;1263;22530;-51
2023/05/15 22:36:45;;;;;;;21.90;13.90;;;23.10;61.30;;;;;;221750;1262;22517;-50
2023/05/15 22:41:49;;;;;;;27.20;14.70;;;23.10;61.10;;;;;;221754;1267;25341;-48
2023/05/15 22:46:53;;;;;;;24.70;14.90;;;23.00;60.90;;;;;;221916;1263;24240;-46
2023/05/15 22:51:57;;;;;;;26.90;14.20;;;23.10;60.80;;;;;;221867;1263;22674;-50
2023/05/15 22:57:02;;;;;;;22.70;13.50;;;23.00;60.90;;;;;;221663;1266;22572;-47
2023/05/15 23:02:06;;;;;;;22.20;13.20;;;23.00;61.30;;;;;;229666;1266;22123;-52
2023/05/15 23:07:09;;;;;;;20.00;13.10;;;23.10;60.50;;;;;;221626;1266;23555;-46
2023/05/15 23:12:13;;;;;;;19.10;12.10;;;23.10;60.10;;;;;;229468;1269;22368;-49
2023/05/15 23:17:17;;;;;;;17.80;11.70;;;23.10;59.70;;;;;;222875;1256;26552;-47
2023/05/15 23:22:21;;;;;;;16.70;11.90;;;23.10;59.80;;;;;;221650;1266;22511;-47
2023/05/15 23:27:25;;;;;;;20.20;11.20;;;23.00;59.90;;;;;;222763;1256;22706;-50
2023/05/15 23:32:30;;;;;;;16.10;11.20;;;22.90;59.80;;;;;;221773;1263;22516;-49
2023/05/15 23:37:34;;;;;;;18.60;11.50;;;22.90;59.90;;;;;;221818;1266;24196;-52
2023/05/15 23:42:38;;;;;;;17.00;10.50;;;22.80;60.30;;;;;;221767;1269;25318;-48
2023/05/15 23:47:42;;;;;;;15.30;11.00;;;22.80;60.30;;;;;;221729;1260;22514;-46
2023/05/15 23:52:46;;;;;;;15.50;11.20;;;22.70;60.20;;;;;;221793;1263;22641;-49
2023/05/15 23:57:51;;;;;;;13.60;10.00;;;22.70;60.30;;;;;;221810;1266;23954;-46
